Menu Close Menu
Station Historical Data
Daily Summary for April 4, 2017 Units:  Metric    English   Both
« Previous Day
Next Day »
Daily Weekly Monthly Yearly Custom
  High: Low: Average:
Temperature: 27.3 °C 14.6 °C 20.4 °C
Dew Point: 14.9 °C 7.3 °C 12.5 °C
Humidity: 95% 31% 65%
Wind Speed: 1.6km/h 0km/h 0.2km/h
Wind Gust: 9.7km/h - -
Wind- - SSW
Pressure: 1012.4 hPa 1008 hPa -
Precipitation: 0 mm    
Historical Graphs
 
 
Tabular Data for April 4, 2017
Time Temperature Dew Point Pressure Wind Wind Speed Wind Gust Humidity Rainfall Rate (Hourly) solar Conditions
00:00 15.8 °C 14.4 °C 1008 hPa Calm   4.8 km/h 91% 0 mm 0.0 W/m2 SCT
00:15 15.9 °C 14.4 °C 1008 hPa Calm   4.8 km/h 91% 0 mm 0.0 W/m2 SCT
00:30 15.8 °C 14.4 °C 1008 hPa Calm   3.2 km/h 91% 0 mm 0.0 W/m2 SCT
00:45 15.8 °C 14.3 °C 1008 hPa Calm   1.6 km/h 91% 0 mm 0.0 W/m2 SCT
01:00 15.8 °C 14.4 °C 1008 hPa Calm   3.2 km/h 91% 0 mm 0.0 W/m2 SCT
01:15 15.8 °C 14.4 °C 1008 hPa Calm   8 km/h 91% 0 mm 0.0 W/m2 SCT
01:30 15.9 °C 14.5 °C 1008.4 hPa Calm   8 km/h 91% 0 mm 0.0 W/m2 SCT
01:45 16 °C 14.6 °C 1008.4 hPa Calm   3.2 km/h 91% 0 mm 0.0 W/m2 SCT
02:00 16 °C 14.6 °C 1008.4 hPa Calm   4.8 km/h 91% 0 mm 0.0 W/m2 SCT
02:15 16.1 °C 14.6 °C 1008.4 hPa Calm   8 km/h 91% 0 mm 0.0 W/m2 SCT
02:30 16.2 °C 14.7 °C 1008.7 hPa Calm   3.2 km/h 91% 0 mm 0.0 W/m2 SCT
02:45 16.3 °C 14.8 °C 1008.7 hPa Calm   3.2 km/h 91% 0 mm 0.0 W/m2 SCT
03:00 16.3 °C 14.6 °C 1008.7 hPa Calm   1.6 km/h 90% 0 mm 0.0 W/m2 SCT
03:15 16.1 °C 14.6 °C 1009 hPa Calm   1.6 km/h 91% 0 mm 0.0 W/m2 SCT
03:30 16.1 °C 14.6 °C 1009 hPa Calm   1.6 km/h 91% 0 mm 0.0 W/m2 SCT
03:45 16.1 °C 14.7 °C 1009 hPa Calm   1.6 km/h 91% 0 mm 0.0 W/m2 SCT
04:00 15.9 °C 14.5 °C 1009 hPa Calm   1.6 km/h 91% 0 mm 0.0 W/m2 SCT
04:15 15.8 °C 14.6 °C 1009.4 hPa Calm     92% 0 mm 0.0 W/m2 SCT
04:30 15.7 °C 14.9 °C 1009.4 hPa Calm     95% 0 mm 0.0 W/m2 SCT
04:45 15.7 °C 14.9 °C 1009.4 hPa Calm     95% 0 mm 0.0 W/m2 SCT
05:00 15.7 °C 14.9 °C 1009.7 hPa Calm     95% 0 mm 0.0 W/m2 SCT
05:15 15.7 °C 14.9 °C 1009.7 hPa Calm     95% 0 mm 0.0 W/m2 SCT
05:30 15.7 °C 14.9 °C 1010 hPa Calm     95% 0 mm 0.0 W/m2 SCT
05:45 15.7 °C 14.9 °C 1010 hPa Calm     95% 0 mm 0.0 W/m2 SCT
06:00 15.7 °C 14.9 °C 1010 hPa Calm     95% 0 mm 0.0 W/m2 SCT
06:15 15.7 °C 14.9 °C 1010 hPa Calm     95% 0 mm 0.0 W/m2 SCT
06:30 15.7 °C 14.9 °C 1010 hPa Calm     95% 0 mm 0.0 W/m2 SCT
06:45 15.7 °C 14.9 °C 1010.4 hPa Calm     95% 0 mm 0.0 W/m2 SCT
07:00 15.7 °C 14.9 °C 1010.7 hPa Calm     95% 0 mm 0.0 W/m2 SCT
07:15 15.7 °C 14.9 °C 1010.7 hPa Calm     95% 0 mm 0.0 W/m2 SCT
07:30 15.7 °C 14.9 °C 1010.7 hPa Calm     95% 0 mm 0.0 W/m2 SCT
07:45 15.7 °C 14.9 °C 1011.1 hPa Calm     95% 0 mm 0.0 W/m2 SCT
08:00 14.6 °C 13.3 °C 1011.1 hPa Calm   1.6 km/h 92% 0 mm 0.0 W/m2 SCT
08:15 15.2 °C 13.9 °C 1011.1 hPa Calm   1.6 km/h 92% 0 mm 0.0 W/m2 SCT
08:30 15.9 °C 14.1 °C 1011.4 hPa Calm   1.6 km/h 89% 0 mm 0.0 W/m2 SCT
08:45 16.7 °C 14.1 °C 1011.4 hPa Calm   1.6 km/h 85% 0 mm 0.0 W/m2 SCT
09:00 17.2 °C 14.1 °C 1011.4 hPa Calm     82% 0 mm 0.0 W/m2 SCT
09:15 17.7 °C 14.4 °C 1011.4 hPa Calm   3.2 km/h 81% 0 mm 0.0 W/m2 SCT
09:30 18.2 °C 14.1 °C 1011.7 hPa Calm   8 km/h 77% 0 mm 0.0 W/m2 SCT
09:45 18.8 °C 14.3 °C 1011.7 hPa NNW 1.6 km/h 4.8 km/h 75% 0 mm 0.0 W/m2 SCT
10:00 20 °C 14.1 °C 1011.4 hPa Calm   8 km/h 69% 0 mm 0.0 W/m2 SCT
10:15 20.3 °C 14.4 °C 1011.7 hPa Calm   4.8 km/h 69% 0 mm 0.0 W/m2 SCT
10:30 20.9 °C 14.1 °C 1011.7 hPa West 1.6 km/h 8 km/h 65% 0 mm 0.0 W/m2 SCT
11:00 22.4 °C 14.5 °C 1012.1 hPa Calm   8 km/h 61% 0 mm 0.0 W/m2 SCT
11:15 22.8 °C 13.6 °C 1012.4 hPa South 1.6 km/h 6.4 km/h 56% 0 mm 0.0 W/m2 SCT
11:30 23.1 °C 14.1 °C 1012.4 hPa Calm   3.2 km/h 57% 0 mm 0.0 W/m2 SCT
11:45 23.3 °C 14 °C 1012.4 hPa Calm   8 km/h 56% 0 mm 0.0 W/m2 SCT
12:00 23.6 °C 13.1 °C 1012.4 hPa SSE 1.6 km/h 8 km/h 52% 0 mm 0.0 W/m2 SCT
12:15 23.9 °C 13.1 °C 1012.4 hPa SW 1.6 km/h 9.7 km/h 51% 0 mm 0.0 W/m2 SCT
12:30 24.3 °C 13.2 °C 1012.4 hPa Calm   9.7 km/h 50% 0 mm 0.0 W/m2 SCT
12:45 24.7 °C 13.2 °C 1012.4 hPa ENE 1.6 km/h 9.7 km/h 49% 0 mm 0.0 W/m2 SCT
13:00 25.1 °C 12.7 °C 1012.1 hPa SSW 1.6 km/h 8 km/h 46% 0 mm 0.0 W/m2 SCT
13:15 25.9 °C 12.4 °C 1012.4 hPa Calm   8 km/h 43% 0 mm 0.0 W/m2 SCT
13:30 26.4 °C 12.1 °C 1012.4 hPa WNW 1.6 km/h 8 km/h 41% 0 mm 0.0 W/m2 SCT
13:45 26.6 °C 12.2 °C 1012.1 hPa ESE 1.6 km/h 8 km/h 41% 0 mm 0.0 W/m2 SCT
14:00 26.8 °C 11.7 °C 1011.7 hPa SE 1.6 km/h 8 km/h 39% 0 mm 0.0 W/m2 SCT
14:15 27.3 °C 11.7 °C 1011.4 hPa Calm   4.8 km/h 38% 0 mm 0.0 W/m2 SCT
14:30 27.2 °C 12.8 °C 1011.1 hPa West 1.6 km/h 3.2 km/h 41% 0 mm 0.0 W/m2 SCT
14:45 26.5 °C 11.4 °C 1010.7 hPa Calm   8 km/h 39% 0 mm 0.0 W/m2 SCT
15:00 26.6 °C 11.5 °C 1010.7 hPa Calm   3.2 km/h 39% 0 mm 0.0 W/m2 SCT
15:15 26.8 °C 10.9 °C 1010.4 hPa NNW 1.6 km/h 4.8 km/h 37% 0 mm 0.0 W/m2 SCT
15:30 26.4 °C 10.6 °C 1010.4 hPa Calm   3.2 km/h 37% 0 mm 0.0 W/m2 SCT
15:45 26.4 °C 10.2 °C 1010.4 hPa Calm   4.8 km/h 36% 0 mm 0.0 W/m2 SCT
16:00 26.6 °C 9.9 °C 1010 hPa Calm   8 km/h 35% 0 mm 0.0 W/m2 SCT
16:15 26.8 °C 10.1 °C 1010 hPa Calm   3.2 km/h 35% 0 mm 0.0 W/m2 SCT
16:30 26.7 °C 9.6 °C 1009.7 hPa Calm   8 km/h 34% 0 mm 0.0 W/m2 SCT
16:45 26.7 °C 10.8 °C 1009.7 hPa Calm   8 km/h 37% 0 mm 0.0 W/m2 SCT
17:00 26.5 °C 10.6 °C 1009.7 hPa Calm   4.8 km/h 37% 0 mm 0.0 W/m2 SCT
17:15 26.6 °C 9.9 °C 1009.7 hPa Calm   3.2 km/h 35% 0 mm 0.0 W/m2 SCT
17:30 26.6 °C 9.4 °C 1009.7 hPa North 1.6 km/h 8 km/h 34% 0 mm 0.0 W/m2 SCT
17:45 26.4 °C 8.4 °C 1009.7 hPa Calm   3.2 km/h 32% 0 mm 0.0 W/m2 SCT
18:00 26.2 °C 8.6 °C 1009.7 hPa Calm   3.2 km/h 33% 0 mm 0.0 W/m2 SCT
18:15 25.9 °C 8.4 °C 1009.7 hPa Calm   3.2 km/h 33% 0 mm 0.0 W/m2 SCT
18:30 25.7 °C 7.3 °C 1009.7 hPa Calm   4.8 km/h 31% 0 mm 0.0 W/m2 SCT
18:45 25.4 °C 8.4 °C 1009.7 hPa Calm   1.6 km/h 34% 0 mm 0.0 W/m2 SCT
19:00 24.8 °C 8.7 °C 1010 hPa Calm     36% 0 mm 0.0 W/m2 SCT
19:15 24.3 °C 8.7 °C 1010 hPa Calm     37% 0 mm 0.0 W/m2 SCT
19:30 23.8 °C 9.1 °C 1010 hPa Calm     39% 0 mm 0.0 W/m2 SCT
19:45 23.4 °C 9.8 °C 1010 hPa Calm     42% 0 mm 0.0 W/m2 SCT
20:00 22.8 °C 9.9 °C 1010.4 hPa Calm     44% 0 mm 0.0 W/m2 SCT
20:15 22.3 °C 9.8 °C 1010.4 hPa Calm     45% 0 mm 0.0 W/m2 SCT
20:30 21.8 °C 9.7 °C 1010.7 hPa Calm     46% 0 mm 0.0 W/m2 SCT
20:45 21.2 °C 9.4 °C 1010.7 hPa Calm     47% 0 mm 0.0 W/m2 SCT
21:00 20.7 °C 10.5 °C 1010.7 hPa Calm     52% 0 mm 0.0 W/m2 SCT
21:15 20.4 °C 10.4 °C 1011.4 hPa Calm     53% 0 mm 0.0 W/m2 SCT
21:30 19.9 °C 9.8 °C 1011.4 hPa Calm     52% 0 mm 0.0 W/m2 SCT
21:45 19.4 °C 10.9 °C 1011.7 hPa Calm   3.2 km/h 58% 0 mm 0.0 W/m2 SCT
22:00 19.2 °C 10.7 °C 1011.7 hPa Calm     58% 0 mm 0.0 W/m2 SCT
22:15 18.8 °C 10.3 °C 1011.7 hPa Calm     58% 0 mm 0.0 W/m2 SCT
22:30 18.6 °C 10.6 °C 1011.7 hPa Calm   1.6 km/h 60% 0 mm 0.0 W/m2 SCT
22:45 18.4 °C 10.2 °C 1011.7 hPa Calm     59% 0 mm 0.0 W/m2 SCT
23:00 18.3 °C 10.6 °C 1011.7 hPa Calm     61% 0 mm 0.0 W/m2 SCT
23:15 18.1 °C 10.4 °C 1011.7 hPa Calm     61% 0 mm 0.0 W/m2 SCT
23:30 17.8 °C 10.9 °C 1011.7 hPa Calm     64% 0 mm 0.0 W/m2 SCT
23:45 17.7 °C 11 °C 1011.7 hPa Calm     65% 0 mm 0.0 W/m2 SCT
Piedmont Bend
Compliments of Weather Underground - 4 mb